Prior Lake, MN (55372)

1:25 AM CDT on September 22, 2014 (GMT -0500)
East Spring Lake Twp | Change Station
CLOSE
Current Station
Personal Weather Station
Location: Prior Lake, MN
Elevation: 1008 ft
Nearby Weather Stations

Elev 1008 ft 44.66 °N, 93.43 °W | Updated 26 seconds ago

Clear
Clear
50.9 °F
Feels Like 50.9 °F
N
0.0
Wind Variable Wind from WSW
Gusts 12.0 mph

Today
High -- | Low -- °F
--% Chance of Precip.
Yesterday
High -- | Low -- °F
Precip. -- in
7:00 AM 7:11 PM
Waning Crescent, 4% visible
Pressure 30.23 in
Visibility 10.0 miles
Clouds Clear
Dew Point 49 °F
Humidity 94%
Rainfall 0.00 in
Snow Depth Not available.
UV 0 out of 12
Pollen 4.00 out of 12
Ozone Good
PM2.5 Good
Flu Activity Not available.
METAR KFCM 220553Z 31005KT 10SM CLR 12/10 A3022 RMK AO2 SLP236 T01170100 10172 20117 402000117 51004

More Conditions Fewer Conditions

Pressure 30.23 in
Visibility 10.0 miles
Clouds Clear
Dew Point 49 °F
Humidity 94%
Rainfall 0.00 in
Snow Depth Not available.
UV 0 out of 12
Pollen 4.00 out of 12
Ozone Good
PM2.5 Good
Flu Activity Not available.
METAR KFCM 220553Z 31005KT 10SM CLR 12/10 A3022 RMK AO2 SLP236 T01170100 10172 20117 402000117 51004

More Conditions Fewer Conditions

10-Day Weather Forecast

Almanac

Astronomy

Sep. 22, 2014 Rise Set
Actual Time 7:00 AM CDT 7:11 PM CDT
Civil Twilight 6:31 AM CDT 7:40 PM CDT
Nautical Twilight 5:57 AM CDT 8:14 PM CDT
Astronomical Twilight 5:22 AM CDT 8:49 PM CDT
Moon 5:27 AM CDT 6:20 PM CDT
Length of Visible Light 13h 08m
Length of Day
12h 10m
Tomorrow will be 3m 5s shorter.
Waning Crescent, 4% of the Moon is Illuminated
Today
Waning Crescent
Sep 24
New
Oct 1
First Quarter
Oct 8
Full
Oct 15
Last Quarter

Today's Extremes

State Highs State Lows

Community

WunderPhotos

Upload Photos

1,755,392 photos uploaded!

Nearby

Air Quality

  Air Quality AQ Index Pollutant
Yesterday Good
PM2.5
Yesterday Good
OZONE
Current Good
PM2.5
Current Good
OZONE
Sunday Good
OZONE
Sunday Good
PM2.5
Monday Good
OZONE
Monday Good
PM2.5
Tuesday Good
OZONE
Tuesday Good
PM2.5
Wednesday Moderate
PM2.5
Wednesday Good
OZONE
Thursday Moderate
PM2.5
Thursday Good
OZONE
Friday Moderate
PM2.5
Friday Moderate
OZONE

Snow Depth

Station Depth Elevation
No new snow has been reported.

Earthquake Activity

City Distance Mag. Time & Date
No recent earthquake activity has been reported nearby.
Minimum magnitude displayed is 2.5.

Coastal Water Temperatures

Place Temperature
No Stations Reporting

Nearby Weather Stations